HEAO2: North Fork Red, OK

Data processed at Thu Jan 04 2018 23:12


All information presented herein is the property of the government of the United States of America and may be revised or deleted at any time without prior notice.
Dissemination of this information without the expressed written consent of the Public Affairs Office, Tulsa District U.S. Army Corps of Engineers is strictly prohibited.
These data are gathered electronically and, as presented, have not undergone any form of quality control. These data are not guaranteed to be valid or correct.
Go to home page.
Go to station list.

Upstream stations:

Downstream station:
Previous Day
Next Day
Current Day
    
SHEF ID:       HEAO2     North Fork Red River near Headri
STATION TYPE:  

               PRECIP     STAGE  RIV-FLOW   VOLTAGE
                   in        ft       cfs      volt
              Ccp-Rev   Ccp-Rev   Ccp-Rev   Ccp-Rev
(US/Central)
01/02 00:00      0.00      7.70       380     12.82
01/02 01:00      0.00      7.12       204     12.81
01/02 02:00      0.00     29.13      ----     12.79
01/02 03:00      0.00     17.17     12196     12.77
01/02 04:00      0.00     15.83      8681     12.76
01/02 05:00      0.00     23.16      ----     12.74
01/02 06:00      0.00     29.57      ----     12.73
01/02 07:00      0.00     29.56      ----     12.71
01/02 08:00      0.00      6.96       163     12.73
01/02 09:00      0.00      9.29      1031     12.97
01/02 10:00      0.00      6.63        90     13.77
01/02 11:00      0.00      6.66        96     14.97
01/02 12:00      0.00      6.67        98     14.96
01/02 13:00      0.00      6.73       112     15.00
01/02 14:00      0.00      6.74       114     14.60
01/02 15:00      0.00      6.74       114     14.47
01/02 16:00      0.00      6.76       119     14.41
01/02 17:00      0.00      6.76       119     14.03
01/02 18:00      0.00      6.74       114     13.52
01/02 19:00      0.00      6.74       114     13.15
01/02 20:00      0.00      6.72       109     12.97
01/02 21:00      0.00      6.70       105     12.90
01/02 22:00      0.00      6.68       100     12.87
01/02 23:00      0.00      8.94       871     12.84